sensor_id;sensor_type;location;lat;lon;timestamp;temperature;humidity
35523;DHT22;61478;50.820;4.330;2023-08-06T00:00:40;16.00;99.90
35523;DHT22;61478;50.820;4.330;2023-08-06T00:03:05;16.00;99.90
35523;DHT22;61478;50.820;4.330;2023-08-06T00:05:31;15.90;99.90
35523;DHT22;61478;50.820;4.330;2023-08-06T00:07:57;15.90;99.90
35523;DHT22;61478;50.820;4.330;2023-08-06T00:10:23;15.90;99.90
35523;DHT22;61478;50.820;4.330;2023-08-06T00:12:49;15.90;99.90
35523;DHT22;61478;50.820;4.330;2023-08-06T00:15:15;15.90;99.90
35523;DHT22;61478;50.820;4.330;2023-08-06T00:17:41;16.00;99.90
35523;DHT22;61478;50.820;4.330;2023-08-06T00:20:07;15.90;99.90
35523;DHT22;61478;50.820;4.330;2023-08-06T00:22:35;16.00;99.90
35523;DHT22;61478;50.820;4.330;2023-08-06T00:25:02;16.00;99.90
35523;DHT22;61478;50.820;4.330;2023-08-06T00:27:28;16.00;99.90
35523;DHT22;61478;50.820;4.330;2023-08-06T00:29:55;16.00;99.90
35523;DHT22;61478;50.820;4.330;2023-08-06T00:32:21;16.00;99.90
35523;DHT22;61478;50.820;4.330;2023-08-06T00:34:47;15.90;99.90
35523;DHT22;61478;50.820;4.330;2023-08-06T00:37:16;15.90;99.90
35523;DHT22;61478;50.820;4.330;2023-08-06T00:39:42;15.90;99.90
35523;DHT22;61478;50.820;4.330;2023-08-06T00:42:09;16.00;99.90
35523;DHT22;61478;50.820;4.330;2023-08-06T00:44:36;16.00;99.90
35523;DHT22;61478;50.820;4.330;2023-08-06T00:47:02;15.90;99.90
35523;DHT22;61478;50.820;4.330;2023-08-06T00:49:28;16.00;99.90
35523;DHT22;61478;50.820;4.330;2023-08-06T00:51:55;16.00;99.90
35523;DHT22;61478;50.820;4.330;2023-08-06T00:54:22;16.00;99.90
35523;DHT22;61478;50.820;4.330;2023-08-06T00:56:49;15.90;99.90
35523;DHT22;61478;50.820;4.330;2023-08-06T00:59:15;15.90;99.90
35523;DHT22;61478;50.820;4.330;2023-08-06T01:01:41;15.90;99.90
35523;DHT22;61478;50.820;4.330;2023-08-06T01:04:07;15.90;99.90
35523;DHT22;61478;50.820;4.330;2023-08-06T01:06:48;15.90;99.90
35523;DHT22;61478;50.820;4.330;2023-08-06T01:11:54;15.90;99.90
35523;DHT22;61478;50.820;4.330;2023-08-06T01:14:37;15.90;99.90
35523;DHT22;61478;50.820;4.330;2023-08-06T01:17:08;16.00;99.90
35523;DHT22;61478;50.820;4.330;2023-08-06T01:19:34;15.90;99.90
35523;DHT22;61478;50.820;4.330;2023-08-06T01:22:00;15.90;99.90
35523;DHT22;61478;50.820;4.330;2023-08-06T01:24:26;15.90;99.90
35523;DHT22;61478;50.820;4.330;2023-08-06T01:27:09;16.00;99.90
35523;DHT22;61478;50.820;4.330;2023-08-06T01:30:09;16.00;99.90
35523;DHT22;61478;50.820;4.330;2023-08-06T01:32:40;16.00;99.90
35523;DHT22;61478;50.820;4.330;2023-08-06T01:35:11;16.00;99.90
35523;DHT22;61478;50.820;4.330;2023-08-06T01:37:38;16.00;99.90
35523;DHT22;61478;50.820;4.330;2023-08-06T01:40:10;16.00;99.90
35523;DHT22;61478;50.820;4.330;2023-08-06T01:42:37;16.00;99.90
35523;DHT22;61478;50.820;4.330;2023-08-06T01:45:03;15.90;99.90
35523;DHT22;61478;50.820;4.330;2023-08-06T01:47:29;15.90;99.90
35523;DHT22;61478;50.820;4.330;2023-08-06T01:49:55;15.90;99.90
35523;DHT22;61478;50.820;4.330;2023-08-06T01:52:21;16.00;99.90
35523;DHT22;61478;50.820;4.330;2023-08-06T01:54:47;16.00;99.90
35523;DHT22;61478;50.820;4.330;2023-08-06T01:57:13;15.90;99.90
35523;DHT22;61478;50.820;4.330;2023-08-06T01:59:39;15.90;99.90
35523;DHT22;61478;50.820;4.330;2023-08-06T02:02:05;15.90;99.90
35523;DHT22;61478;50.820;4.330;2023-08-06T02:04:31;15.90;99.90
35523;DHT22;61478;50.820;4.330;2023-08-06T02:06:56;15.80;99.90
35523;DHT22;61478;50.820;4.330;2023-08-06T02:09:22;15.80;99.90
35523;DHT22;61478;50.820;4.330;2023-08-06T02:11:48;15.70;99.90
35523;DHT22;61478;50.820;4.330;2023-08-06T02:14:14;15.80;99.90
35523;DHT22;61478;50.820;4.330;2023-08-06T02:16:40;15.80;99.90
35523;DHT22;61478;50.820;4.330;2023-08-06T02:19:06;15.80;99.90
35523;DHT22;61478;50.820;4.330;2023-08-06T02:21:31;15.80;99.90
35523;DHT22;61478;50.820;4.330;2023-08-06T02:23:58;15.90;99.90
35523;DHT22;61478;50.820;4.330;2023-08-06T02:26:24;15.90;99.90
35523;DHT22;61478;50.820;4.330;2023-08-06T02:28:50;15.90;99.90
35523;DHT22;61478;50.820;4.330;2023-08-06T02:31:16;16.00;99.90
35523;DHT22;61478;50.820;4.330;2023-08-06T02:33:41;16.10;99.90
35523;DHT22;61478;50.820;4.330;2023-08-06T02:36:07;16.10;99.90
35523;DHT22;61478;50.820;4.330;2023-08-06T02:38:33;16.10;99.90
35523;DHT22;61478;50.820;4.330;2023-08-06T02:41:02;16.10;99.90
35523;DHT22;61478;50.820;4.330;2023-08-06T02:43:28;16.10;99.90
35523;DHT22;61478;50.820;4.330;2023-08-06T02:45:57;16.10;99.90
35523;DHT22;61478;50.820;4.330;2023-08-06T02:48:23;16.20;99.90
35523;DHT22;61478;50.820;4.330;2023-08-06T02:50:49;16.20;99.90
35523;DHT22;61478;50.820;4.330;2023-08-06T02:53:15;16.10;99.90
35523;DHT22;61478;50.820;4.330;2023-08-06T02:55:50;16.10;99.90
35523;DHT22;61478;50.820;4.330;2023-08-06T02:58:17;16.20;99.90
35523;DHT22;61478;50.820;4.330;2023-08-06T03:01:01;16.10;99.90
35523;DHT22;61478;50.820;4.330;2023-08-06T03:03:30;16.10;99.90
35523;DHT22;61478;50.820;4.330;2023-08-06T03:05:56;16.20;99.90
35523;DHT22;61478;50.820;4.330;2023-08-06T03:08:22;16.20;99.90
35523;DHT22;61478;50.820;4.330;2023-08-06T03:10:51;16.10;99.90
35523;DHT22;61478;50.820;4.330;2023-08-06T03:13:18;16.00;99.90
35523;DHT22;61478;50.820;4.330;2023-08-06T03:15:51;16.10;99.90
35523;DHT22;61478;50.820;4.330;2023-08-06T03:18:17;16.10;99.90
35523;DHT22;61478;50.820;4.330;2023-08-06T03:20:44;16.20;99.90
35523;DHT22;61478;50.820;4.330;2023-08-06T03:23:10;16.30;99.90
35523;DHT22;61478;50.820;4.330;2023-08-06T03:25:36;16.40;99.90
35523;DHT22;61478;50.820;4.330;2023-08-06T03:28:02;16.40;99.90
35523;DHT22;61478;50.820;4.330;2023-08-06T03:30:28;16.30;99.90
35523;DHT22;61478;50.820;4.330;2023-08-06T03:32:54;16.40;99.90
35523;DHT22;61478;50.820;4.330;2023-08-06T03:35:20;16.30;99.90
35523;DHT22;61478;50.820;4.330;2023-08-06T03:37:46;16.20;99.90
35523;DHT22;61478;50.820;4.330;2023-08-06T03:40:12;16.30;99.90
35523;DHT22;61478;50.820;4.330;2023-08-06T03:42:38;16.30;99.90
35523;DHT22;61478;50.820;4.330;2023-08-06T03:45:04;16.40;99.90
35523;DHT22;61478;50.820;4.330;2023-08-06T03:47:30;16.40;99.90
35523;DHT22;61478;50.820;4.330;2023-08-06T03:49:56;16.30;99.90
35523;DHT22;61478;50.820;4.330;2023-08-06T03:52:22;16.10;99.90
35523;DHT22;61478;50.820;4.330;2023-08-06T03:54:47;16.10;99.90
35523;DHT22;61478;50.820;4.330;2023-08-06T03:57:14;16.30;99.90
35523;DHT22;61478;50.820;4.330;2023-08-06T03:59:40;16.50;99.90
35523;DHT22;61478;50.820;4.330;2023-08-06T04:02:05;16.50;99.90
35523;DHT22;61478;50.820;4.330;2023-08-06T04:04:31;16.30;99.90
35523;DHT22;61478;50.820;4.330;2023-08-06T04:06:57;16.40;99.90
35523;DHT22;61478;50.820;4.330;2023-08-06T04:09:23;16.50;99.90
35523;DHT22;61478;50.820;4.330;2023-08-06T04:11:49;16.60;99.90
35523;DHT22;61478;50.820;4.330;2023-08-06T04:14:14;16.70;99.90
35523;DHT22;61478;50.820;4.330;2023-08-06T04:16:40;16.60;99.90
35523;DHT22;61478;50.820;4.330;2023-08-06T04:19:06;16.50;99.90
35523;DHT22;61478;50.820;4.330;2023-08-06T04:21:32;16.60;99.90
35523;DHT22;61478;50.820;4.330;2023-08-06T04:23:58;16.70;99.90
35523;DHT22;61478;50.820;4.330;2023-08-06T04:26:23;16.80;99.90
35523;DHT22;61478;50.820;4.330;2023-08-06T04:28:49;16.90;99.90
35523;DHT22;61478;50.820;4.330;2023-08-06T04:31:15;16.80;99.90
35523;DHT22;61478;50.820;4.330;2023-08-06T04:33:41;16.80;99.90
35523;DHT22;61478;50.820;4.330;2023-08-06T04:36:06;16.80;99.90
35523;DHT22;61478;50.820;4.330;2023-08-06T04:38:32;16.60;99.90
35523;DHT22;61478;50.820;4.330;2023-08-06T04:40:58;16.60;99.90
35523;DHT22;61478;50.820;4.330;2023-08-06T04:43:24;16.70;99.90
35523;DHT22;61478;50.820;4.330;2023-08-06T04:45:53;16.60;99.90
35523;DHT22;61478;50.820;4.330;2023-08-06T04:48:20;16.50;99.90
35523;DHT22;61478;50.820;4.330;2023-08-06T04:50:50;16.60;99.90
35523;DHT22;61478;50.820;4.330;2023-08-06T04:53:16;16.60;99.90
35523;DHT22;61478;50.820;4.330;2023-08-06T04:55:42;16.60;99.90
35523;DHT22;61478;50.820;4.330;2023-08-06T04:58:12;16.70;99.90
35523;DHT22;61478;50.820;4.330;2023-08-06T05:00:38;16.80;99.90
35523;DHT22;61478;50.820;4.330;2023-08-06T05:03:05;16.60;99.90
35523;DHT22;61478;50.820;4.330;2023-08-06T05:05:31;16.50;99.90
35523;DHT22;61478;50.820;4.330;2023-08-06T05:07:57;16.60;99.90
35523;DHT22;61478;50.820;4.330;2023-08-06T05:10:26;16.60;99.90
35523;DHT22;61478;50.820;4.330;2023-08-06T05:12:53;16.80;99.90
35523;DHT22;61478;50.820;4.330;2023-08-06T05:15:19;16.90;99.90
35523;DHT22;61478;50.820;4.330;2023-08-06T05:17:46;16.90;99.90
35523;DHT22;61478;50.820;4.330;2023-08-06T05:20:11;17.00;99.90
35523;DHT22;61478;50.820;4.330;2023-08-06T05:22:37;17.00;99.90
35523;DHT22;61478;50.820;4.330;2023-08-06T05:25:03;16.70;99.90
35523;DHT22;61478;50.820;4.330;2023-08-06T05:27:30;16.70;99.90
35523;DHT22;61478;50.820;4.330;2023-08-06T05:29:56;16.80;99.90
35523;DHT22;61478;50.820;4.330;2023-08-06T05:32:22;16.60;99.90
35523;DHT22;61478;50.820;4.330;2023-08-06T05:34:48;16.30;99.90
35523;DHT22;61478;50.820;4.330;2023-08-06T05:37:14;16.40;99.90
35523;DHT22;61478;50.820;4.330;2023-08-06T05:39:40;16.40;99.90
35523;DHT22;61478;50.820;4.330;2023-08-06T05:42:07;16.30;99.90
35523;DHT22;61478;50.820;4.330;2023-08-06T05:44:33;16.20;99.90
35523;DHT22;61478;50.820;4.330;2023-08-06T05:46:59;16.00;99.90
35523;DHT22;61478;50.820;4.330;2023-08-06T05:49:25;15.90;99.90
35523;DHT22;61478;50.820;4.330;2023-08-06T05:51:50;16.00;99.90
35523;DHT22;61478;50.820;4.330;2023-08-06T05:54:19;16.10;99.90
35523;DHT22;61478;50.820;4.330;2023-08-06T05:56:45;15.90;99.90
35523;DHT22;61478;50.820;4.330;2023-08-06T05:59:11;16.00;99.90
35523;DHT22;61478;50.820;4.330;2023-08-06T06:01:37;16.10;99.90
35523;DHT22;61478;50.820;4.330;2023-08-06T06:04:03;16.30;99.90
35523;DHT22;61478;50.820;4.330;2023-08-06T06:06:29;16.20;99.90
35523;DHT22;61478;50.820;4.330;2023-08-06T06:08:56;16.00;99.90
35523;DHT22;61478;50.820;4.330;2023-08-06T06:11:22;16.00;99.90
35523;DHT22;61478;50.820;4.330;2023-08-06T06:13:51;15.90;99.90
35523;DHT22;61478;50.820;4.330;2023-08-06T06:16:20;15.90;99.90
35523;DHT22;61478;50.820;4.330;2023-08-06T06:18:46;15.90;99.90
35523;DHT22;61478;50.820;4.330;2023-08-06T06:21:12;15.90;99.90
35523;DHT22;61478;50.820;4.330;2023-08-06T06:23:38;15.80;99.90
35523;DHT22;61478;50.820;4.330;2023-08-06T06:26:03;15.80;99.90
35523;DHT22;61478;50.820;4.330;2023-08-06T06:28:29;15.80;99.90
35523;DHT22;61478;50.820;4.330;2023-08-06T06:31:00;15.60;99.90
35523;DHT22;61478;50.820;4.330;2023-08-06T06:33:27;15.60;99.90
35523;DHT22;61478;50.820;4.330;2023-08-06T06:35:53;15.60;99.90
35523;DHT22;61478;50.820;4.330;2023-08-06T06:38:19;15.60;99.90
35523;DHT22;61478;50.820;4.330;2023-08-06T06:40:53;15.60;99.90
35523;DHT22;61478;50.820;4.330;2023-08-06T06:43:19;15.60;99.90
35523;DHT22;61478;50.820;4.330;2023-08-06T06:45:45;15.60;99.90
35523;DHT22;61478;50.820;4.330;2023-08-06T06:48:11;15.60;99.90
35523;DHT22;61478;50.820;4.330;2023-08-06T06:50:37;15.60;99.90
35523;DHT22;61478;50.820;4.330;2023-08-06T06:53:04;15.50;99.90
35523;DHT22;61478;50.820;4.330;2023-08-06T06:55:30;15.40;99.90
35523;DHT22;61478;50.820;4.330;2023-08-06T06:57:56;15.30;99.90
35523;DHT22;61478;50.820;4.330;2023-08-06T07:00:22;15.30;99.90
35523;DHT22;61478;50.820;4.330;2023-08-06T07:02:48;15.20;99.90
35523;DHT22;61478;50.820;4.330;2023-08-06T07:05:14;15.30;99.90
35523;DHT22;61478;50.820;4.330;2023-08-06T07:07:40;15.40;99.90
35523;DHT22;61478;50.820;4.330;2023-08-06T07:10:06;15.60;99.90
35523;DHT22;61478;50.820;4.330;2023-08-06T07:12:32;15.60;99.90
35523;DHT22;61478;50.820;4.330;2023-08-06T07:14:58;15.60;99.90
35523;DHT22;61478;50.820;4.330;2023-08-06T07:17:24;15.40;99.90
35523;DHT22;61478;50.820;4.330;2023-08-06T07:19:50;15.50;99.90
35523;DHT22;61478;50.820;4.330;2023-08-06T07:22:16;15.50;99.90
35523;DHT22;61478;50.820;4.330;2023-08-06T07:24:41;15.50;99.90
35523;DHT22;61478;50.820;4.330;2023-08-06T07:27:07;15.50;99.90
35523;DHT22;61478;50.820;4.330;2023-08-06T07:29:33;15.40;99.90
35523;DHT22;61478;50.820;4.330;2023-08-06T07:31:59;15.40;99.90
35523;DHT22;61478;50.820;4.330;2023-08-06T07:34:25;15.50;99.90
35523;DHT22;61478;50.820;4.330;2023-08-06T07:36:51;15.70;99.90
35523;DHT22;61478;50.820;4.330;2023-08-06T07:39:16;15.60;99.90
35523;DHT22;61478;50.820;4.330;2023-08-06T07:41:42;15.80;99.90
35523;DHT22;61478;50.820;4.330;2023-08-06T07:44:08;15.80;99.90
35523;DHT22;61478;50.820;4.330;2023-08-06T07:46:34;15.70;99.90
35523;DHT22;61478;50.820;4.330;2023-08-06T07:49:00;15.80;99.90
35523;DHT22;61478;50.820;4.330;2023-08-06T07:51:26;15.70;99.90
35523;DHT22;61478;50.820;4.330;2023-08-06T07:53:52;15.80;99.90
35523;DHT22;61478;50.820;4.330;2023-08-06T07:56:18;15.80;99.90
35523;DHT22;61478;50.820;4.330;2023-08-06T07:58:44;15.60;99.90
35523;DHT22;61478;50.820;4.330;2023-08-06T08:01:09;15.60;99.90
35523;DHT22;61478;50.820;4.330;2023-08-06T08:03:35;15.80;99.90
35523;DHT22;61478;50.820;4.330;2023-08-06T08:06:01;15.80;99.90
35523;DHT22;61478;50.820;4.330;2023-08-06T08:08:27;15.80;99.90
35523;DHT22;61478;50.820;4.330;2023-08-06T08:10:54;15.90;99.90
35523;DHT22;61478;50.820;4.330;2023-08-06T08:13:21;15.80;99.90
35523;DHT22;61478;50.820;4.330;2023-08-06T08:15:47;15.90;99.90
35523;DHT22;61478;50.820;4.330;2023-08-06T08:18:13;15.90;99.90
35523;DHT22;61478;50.820;4.330;2023-08-06T08:20:39;15.90;99.90
35523;DHT22;61478;50.820;4.330;2023-08-06T08:23:05;15.80;99.90
35523;DHT22;61478;50.820;4.330;2023-08-06T08:25:30;15.70;99.90
35523;DHT22;61478;50.820;4.330;2023-08-06T08:27:57;15.60;99.90
35523;DHT22;61478;50.820;4.330;2023-08-06T08:30:23;15.50;99.90
35523;DHT22;61478;50.820;4.330;2023-08-06T08:32:50;15.40;99.90
35523;DHT22;61478;50.820;4.330;2023-08-06T08:35:16;15.40;99.90
35523;DHT22;61478;50.820;4.330;2023-08-06T08:37:43;15.30;99.90
35523;DHT22;61478;50.820;4.330;2023-08-06T08:40:09;15.40;99.90
35523;DHT22;61478;50.820;4.330;2023-08-06T08:42:36;15.40;99.90
35523;DHT22;61478;50.820;4.330;2023-08-06T08:45:04;15.50;99.90
35523;DHT22;61478;50.820;4.330;2023-08-06T08:47:32;15.50;99.90
35523;DHT22;61478;50.820;4.330;2023-08-06T08:49:59;15.50;99.90
35523;DHT22;61478;50.820;4.330;2023-08-06T08:52:26;15.60;99.90
35523;DHT22;61478;50.820;4.330;2023-08-06T08:54:56;15.70;99.90
35523;DHT22;61478;50.820;4.330;2023-08-06T08:57:22;15.80;99.90
35523;DHT22;61478;50.820;4.330;2023-08-06T08:59:47;15.80;99.90
35523;DHT22;61478;50.820;4.330;2023-08-06T09:02:15;15.80;99.90
35523;DHT22;61478;50.820;4.330;2023-08-06T09:04:42;15.80;99.90
35523;DHT22;61478;50.820;4.330;2023-08-06T09:07:11;15.60;99.90
35523;DHT22;61478;50.820;4.330;2023-08-06T09:09:39;15.60;99.90
35523;DHT22;61478;50.820;4.330;2023-08-06T09:12:16;15.60;99.90
35523;DHT22;61478;50.820;4.330;2023-08-06T09:14:43;15.60;99.90
35523;DHT22;61478;50.820;4.330;2023-08-06T09:17:14;15.60;99.90
35523;DHT22;61478;50.820;4.330;2023-08-06T09:19:43;15.50;99.90
35523;DHT22;61478;50.820;4.330;2023-08-06T09:22:12;15.50;99.90
35523;DHT22;61478;50.820;4.330;2023-08-06T09:24:40;15.50;99.90
35523;DHT22;61478;50.820;4.330;2023-08-06T09:27:11;15.40;99.90
35523;DHT22;61478;50.820;4.330;2023-08-06T09:29:43;15.40;99.90
35523;DHT22;61478;50.820;4.330;2023-08-06T09:32:09;15.30;99.90
35523;DHT22;61478;50.820;4.330;2023-08-06T09:34:35;15.20;99.90
35523;DHT22;61478;50.820;4.330;2023-08-06T09:37:01;15.20;99.90
35523;DHT22;61478;50.820;4.330;2023-08-06T09:39:31;15.10;99.90
35523;DHT22;61478;50.820;4.330;2023-08-06T09:41:58;15.10;99.90
35523;DHT22;61478;50.820;4.330;2023-08-06T09:44:26;15.00;99.90
35523;DHT22;61478;50.820;4.330;2023-08-06T09:46:54;15.00;99.90
35523;DHT22;61478;50.820;4.330;2023-08-06T09:51:57;14.90;99.90
35523;DHT22;61478;50.820;4.330;2023-08-06T09:54:27;15.00;99.90
35523;DHT22;61478;50.820;4.330;2023-08-06T09:56:54;15.00;99.90
35523;DHT22;61478;50.820;4.330;2023-08-06T09:59:20;15.00;99.90
35523;DHT22;61478;50.820;4.330;2023-08-06T10:01:46;15.00;99.90
35523;DHT22;61478;50.820;4.330;2023-08-06T10:04:14;15.10;99.90
35523;DHT22;61478;50.820;4.330;2023-08-06T10:06:46;15.20;99.90
35523;DHT22;61478;50.820;4.330;2023-08-06T10:09:13;15.30;99.90
35523;DHT22;61478;50.820;4.330;2023-08-06T10:11:40;15.30;99.90
35523;DHT22;61478;50.820;4.330;2023-08-06T10:14:16;15.40;99.90
35523;DHT22;61478;50.820;4.330;2023-08-06T10:16:46;15.40;99.90
35523;DHT22;61478;50.820;4.330;2023-08-06T10:19:12;15.50;99.90
35523;DHT22;61478;50.820;4.330;2023-08-06T10:21:40;15.50;99.90
35523;DHT22;61478;50.820;4.330;2023-08-06T10:24:14;15.50;99.90
35523;DHT22;61478;50.820;4.330;2023-08-06T10:26:40;15.40;99.90
35523;DHT22;61478;50.820;4.330;2023-08-06T10:29:42;15.60;99.90
35523;DHT22;61478;50.820;4.330;2023-08-06T10:32:08;15.60;99.90
35523;DHT22;61478;50.820;4.330;2023-08-06T10:34:58;15.40;99.90
35523;DHT22;61478;50.820;4.330;2023-08-06T10:37:36;15.40;99.90
35523;DHT22;61478;50.820;4.330;2023-08-06T10:40:03;15.50;99.90
35523;DHT22;61478;50.820;4.330;2023-08-06T10:42:31;15.50;99.90
35523;DHT22;61478;50.820;4.330;2023-08-06T10:45:17;15.60;99.90
35523;DHT22;61478;50.820;4.330;2023-08-06T10:47:45;15.80;99.90
35523;DHT22;61478;50.820;4.330;2023-08-06T10:50:15;16.00;99.90
35523;DHT22;61478;50.820;4.330;2023-08-06T10:52:44;16.00;99.90
35523;DHT22;61478;50.820;4.330;2023-08-06T10:55:11;16.20;99.90
35523;DHT22;61478;50.820;4.330;2023-08-06T10:57:37;16.00;99.90
35523;DHT22;61478;50.820;4.330;2023-08-06T11:00:05;16.00;99.90
35523;DHT22;61478;50.820;4.330;2023-08-06T11:02:38;16.00;99.90
35523;DHT22;61478;50.820;4.330;2023-08-06T11:05:10;16.00;99.90
35523;DHT22;61478;50.820;4.330;2023-08-06T11:07:37;16.10;99.90
35523;DHT22;61478;50.820;4.330;2023-08-06T11:10:05;16.10;99.90
35523;DHT22;61478;50.820;4.330;2023-08-06T11:12:32;16.10;99.90
35523;DHT22;61478;50.820;4.330;2023-08-06T11:14:59;16.00;99.90
35523;DHT22;61478;50.820;4.330;2023-08-06T11:17:27;16.20;99.90
35523;DHT22;61478;50.820;4.330;2023-08-06T11:19:53;16.20;99.90
35523;DHT22;61478;50.820;4.330;2023-08-06T11:22:21;16.20;99.90
35523;DHT22;61478;50.820;4.330;2023-08-06T11:24:50;16.20;99.90
35523;DHT22;61478;50.820;4.330;2023-08-06T11:27:17;16.20;99.90
35523;DHT22;61478;50.820;4.330;2023-08-06T11:29:44;16.10;99.90
35523;DHT22;61478;50.820;4.330;2023-08-06T11:32:10;16.20;99.90
35523;DHT22;61478;50.820;4.330;2023-08-06T11:34:37;16.10;99.90
35523;DHT22;61478;50.820;4.330;2023-08-06T11:37:03;16.20;99.90
35523;DHT22;61478;50.820;4.330;2023-08-06T11:39:37;16.20;99.90
35523;DHT22;61478;50.820;4.330;2023-08-06T11:42:05;16.10;99.90
35523;DHT22;61478;50.820;4.330;2023-08-06T11:44:32;16.00;99.90
35523;DHT22;61478;50.820;4.330;2023-08-06T11:46:59;15.90;99.90
35523;DHT22;61478;50.820;4.330;2023-08-06T11:49:44;15.70;99.90
35523;DHT22;61478;50.820;4.330;2023-08-06T11:54:42;15.70;99.90
35523;DHT22;61478;50.820;4.330;2023-08-06T11:57:08;15.60;99.90
35523;DHT22;61478;50.820;4.330;2023-08-06T11:59:34;15.50;99.90
35523;DHT22;61478;50.820;4.330;2023-08-06T12:02:02;15.40;99.90
35523;DHT22;61478;50.820;4.330;2023-08-06T12:04:28;15.50;99.90
35523;DHT22;61478;50.820;4.330;2023-08-06T12:06:54;15.40;99.90
35523;DHT22;61478;50.820;4.330;2023-08-06T12:09:20;15.60;99.90
35523;DHT22;61478;50.820;4.330;2023-08-06T12:11:46;15.60;99.90
35523;DHT22;61478;50.820;4.330;2023-08-06T12:14:12;15.50;99.90
35523;DHT22;61478;50.820;4.330;2023-08-06T12:16:38;15.50;99.90
35523;DHT22;61478;50.820;4.330;2023-08-06T12:19:04;15.50;99.90
35523;DHT22;61478;50.820;4.330;2023-08-06T12:21:30;15.50;99.90
35523;DHT22;61478;50.820;4.330;2023-08-06T12:23:55;15.50;99.90
35523;DHT22;61478;50.820;4.330;2023-08-06T12:26:21;15.50;99.90
35523;DHT22;61478;50.820;4.330;2023-08-06T12:28:47;15.60;99.90
35523;DHT22;61478;50.820;4.330;2023-08-06T12:31:15;15.70;99.90
35523;DHT22;61478;50.820;4.330;2023-08-06T12:33:40;15.80;99.90
35523;DHT22;61478;50.820;4.330;2023-08-06T12:36:06;15.90;99.90
35523;DHT22;61478;50.820;4.330;2023-08-06T12:38:32;15.90;99.90
35523;DHT22;61478;50.820;4.330;2023-08-06T12:40:59;15.90;99.90
35523;DHT22;61478;50.820;4.330;2023-08-06T12:43:25;16.00;99.90
35523;DHT22;61478;50.820;4.330;2023-08-06T12:45:51;16.00;99.90
35523;DHT22;61478;50.820;4.330;2023-08-06T12:48:17;15.90;99.90
35523;DHT22;61478;50.820;4.330;2023-08-06T12:50:42;15.80;99.90
35523;DHT22;61478;50.820;4.330;2023-08-06T12:53:08;15.80;99.90
35523;DHT22;61478;50.820;4.330;2023-08-06T12:55:34;15.80;99.90
35523;DHT22;61478;50.820;4.330;2023-08-06T12:58:00;15.90;99.90
35523;DHT22;61478;50.820;4.330;2023-08-06T13:00:26;16.00;99.90
35523;DHT22;61478;50.820;4.330;2023-08-06T13:02:52;16.00;99.90
35523;DHT22;61478;50.820;4.330;2023-08-06T13:05:18;15.90;99.90
35523;DHT22;61478;50.820;4.330;2023-08-06T13:07:45;15.90;99.90
35523;DHT22;61478;50.820;4.330;2023-08-06T13:10:11;16.00;99.90
35523;DHT22;61478;50.820;4.330;2023-08-06T13:12:37;15.90;99.90
35523;DHT22;61478;50.820;4.330;2023-08-06T13:15:03;15.90;99.90
35523;DHT22;61478;50.820;4.330;2023-08-06T13:17:28;16.00;99.90
35523;DHT22;61478;50.820;4.330;2023-08-06T13:19:54;16.10;99.90
35523;DHT22;61478;50.820;4.330;2023-08-06T13:22:20;16.00;99.90
35523;DHT22;61478;50.820;4.330;2023-08-06T13:24:46;16.20;99.90
35523;DHT22;61478;50.820;4.330;2023-08-06T13:27:12;16.20;99.90
35523;DHT22;61478;50.820;4.330;2023-08-06T13:29:38;16.10;99.90
35523;DHT22;61478;50.820;4.330;2023-08-06T13:32:04;16.10;99.90
35523;DHT22;61478;50.820;4.330;2023-08-06T13:34:30;16.10;99.90
35523;DHT22;61478;50.820;4.330;2023-08-06T13:36:55;16.00;99.90
35523;DHT22;61478;50.820;4.330;2023-08-06T13:39:21;16.10;99.90
35523;DHT22;61478;50.820;4.330;2023-08-06T13:41:47;16.30;99.90
35523;DHT22;61478;50.820;4.330;2023-08-06T13:44:13;16.30;99.90
35523;DHT22;61478;50.820;4.330;2023-08-06T13:46:40;16.30;99.90
35523;DHT22;61478;50.820;4.330;2023-08-06T13:49:05;16.40;99.90
35523;DHT22;61478;50.820;4.330;2023-08-06T13:51:31;16.50;99.90
35523;DHT22;61478;50.820;4.330;2023-08-06T13:53:59;16.60;99.90
35523;DHT22;61478;50.820;4.330;2023-08-06T13:56:25;16.40;99.90
35523;DHT22;61478;50.820;4.330;2023-08-06T13:58:51;16.10;99.90
35523;DHT22;61478;50.820;4.330;2023-08-06T14:01:17;15.90;99.90
35523;DHT22;61478;50.820;4.330;2023-08-06T14:03:46;16.00;99.90
35523;DHT22;61478;50.820;4.330;2023-08-06T14:06:12;15.90;99.90
35523;DHT22;61478;50.820;4.330;2023-08-06T14:08:37;15.90;99.90
35523;DHT22;61478;50.820;4.330;2023-08-06T14:11:04;16.00;99.90
35523;DHT22;61478;50.820;4.330;2023-08-06T14:13:31;16.40;99.90
35523;DHT22;61478;50.820;4.330;2023-08-06T14:15:57;16.30;99.90
35523;DHT22;61478;50.820;4.330;2023-08-06T14:18:23;16.20;99.90
35523;DHT22;61478;50.820;4.330;2023-08-06T14:20:49;16.10;99.90
35523;DHT22;61478;50.820;4.330;2023-08-06T14:23:14;16.40;99.90
35523;DHT22;61478;50.820;4.330;2023-08-06T14:25:40;16.40;99.90
35523;DHT22;61478;50.820;4.330;2023-08-06T14:28:06;16.30;99.90
35523;DHT22;61478;50.820;4.330;2023-08-06T14:30:33;16.60;99.90
35523;DHT22;61478;50.820;4.330;2023-08-06T14:32:59;16.70;99.90
35523;DHT22;61478;50.820;4.330;2023-08-06T14:35:26;16.80;99.90
35523;DHT22;61478;50.820;4.330;2023-08-06T14:37:52;17.00;99.90
35523;DHT22;61478;50.820;4.330;2023-08-06T14:40:17;16.90;99.90
35523;DHT22;61478;50.820;4.330;2023-08-06T14:42:43;16.40;99.90
35523;DHT22;61478;50.820;4.330;2023-08-06T14:45:10;16.10;99.90
35523;DHT22;61478;50.820;4.330;2023-08-06T14:47:35;16.20;99.90
35523;DHT22;61478;50.820;4.330;2023-08-06T14:50:01;16.20;99.90
35523;DHT22;61478;50.820;4.330;2023-08-06T14:52:27;16.10;99.90
35523;DHT22;61478;50.820;4.330;2023-08-06T14:54:53;16.10;99.90
35523;DHT22;61478;50.820;4.330;2023-08-06T14:57:21;16.00;99.90
35523;DHT22;61478;50.820;4.330;2023-08-06T14:59:53;16.00;99.90
35523;DHT22;61478;50.820;4.330;2023-08-06T15:02:19;15.90;99.90
35523;DHT22;61478;50.820;4.330;2023-08-06T15:04:45;16.10;99.90
35523;DHT22;61478;50.820;4.330;2023-08-06T15:07:11;16.20;99.90
35523;DHT22;61478;50.820;4.330;2023-08-06T15:09:36;16.10;99.90
35523;DHT22;61478;50.820;4.330;2023-08-06T15:12:03;16.10;99.90
35523;DHT22;61478;50.820;4.330;2023-08-06T15:14:28;16.40;99.90
35523;DHT22;61478;50.820;4.330;2023-08-06T15:16:54;16.60;99.90
35523;DHT22;61478;50.820;4.330;2023-08-06T15:19:26;16.90;99.90
35523;DHT22;61478;50.820;4.330;2023-08-06T15:21:52;17.00;99.90
35523;DHT22;61478;50.820;4.330;2023-08-06T15:24:18;17.00;99.90
35523;DHT22;61478;50.820;4.330;2023-08-06T15:26:47;16.90;99.90
35523;DHT22;61478;50.820;4.330;2023-08-06T15:29:34;16.90;99.90
35523;DHT22;61478;50.820;4.330;2023-08-06T15:32:03;17.10;99.90
35523;DHT22;61478;50.820;4.330;2023-08-06T15:34:29;17.30;99.90
35523;DHT22;61478;50.820;4.330;2023-08-06T15:36:55;17.40;99.90